Time;durP1;ratioP1;P1;durP2;ratioP2;P2;SDS_P1;SDS_P2;PMS_P1;PMS_P2;Temp;Humidity;BMP_temperature;BMP_pressure;BME280_temperature;BME280_humidity;BME280_pressure;Samples;Min_cycle;Max_cycle;Signal;HPM_P1;HPM_P2
2022/09/29 00:00:41;;;;;;;2.40;2.20;;;8.70;99.90;;;;;;4992655;28;20224;-71
2022/09/29 00:03:07;;;;;;;2.60;2.20;;;8.60;99.90;;;;;;4992408;28;20166;-72
2022/09/29 00:05:33;;;;;;;2.50;2.30;;;8.60;99.90;;;;;;4992191;28;20177;-72
2022/09/29 00:07:59;;;;;;;2.53;2.33;;;8.50;99.90;;;;;;4992419;28;20165;-72
2022/09/29 00:10:25;;;;;;;2.70;2.27;;;8.40;99.90;;;;;;4992882;28;20403;-72
2022/09/29 00:12:50;;;;;;;2.00;1.80;;;8.30;99.90;;;;;;4992576;28;20173;-72
2022/09/29 00:15:16;;;;;;;2.13;1.90;;;8.30;99.90;;;;;;4990689;28;20292;-73
2022/09/29 00:17:42;;;;;;;2.53;2.20;;;8.20;99.90;;;;;;4992495;28;20169;-72
2022/09/29 00:20:08;;;;;;;2.17;1.97;;;8.10;99.90;;;;;;4992213;28;20165;-72
2022/09/29 00:22:33;;;;;;;3.40;2.07;;;8.10;99.90;;;;;;4992226;28;20172;-72
2022/09/29 00:24:59;;;;;;;2.47;2.20;;;8.00;99.90;;;;;;4992078;28;20412;-72
2022/09/29 00:27:25;;;;;;;2.63;2.33;;;8.00;99.90;;;;;;4993154;28;20234;-72
2022/09/29 00:29:50;;;;;;;4.03;2.37;;;7.90;99.90;;;;;;4996303;28;20180;-72
2022/09/29 00:32:16;;;;;;;2.40;2.20;;;7.90;99.90;;;;;;4996180;28;20794;-72
2022/09/29 00:34:41;;;;;;;2.67;2.00;;;7.90;99.90;;;;;;4995829;28;20290;-73
2022/09/29 00:37:07;;;;;;;2.30;2.10;;;7.80;99.90;;;;;;4995947;28;20188;-73
2022/09/29 00:39:32;;;;;;;4.87;2.27;;;7.80;99.90;;;;;;4996086;28;20643;-73
2022/09/29 00:41:58;;;;;;;6.50;2.20;;;7.80;99.90;;;;;;4996053;28;20177;-73
2022/09/29 00:44:54;;;;;;;6.70;2.83;;;7.70;99.90;;;;;;4995507;28;20709;-72
2022/09/29 00:47:21;;;;;;;2.77;2.47;;;7.70;99.90;;;;;;4995730;28;20560;-72
2022/09/29 00:49:54;;;;;;;2.10;1.90;;;7.60;99.90;;;;;;4995621;28;20455;-73
2022/09/29 00:52:29;;;;;;;3.00;2.07;;;7.60;99.90;;;;;;4995944;28;20829;-72
2022/09/29 00:54:59;;;;;;;2.60;2.40;;;7.60;99.90;;;;;;4994359;28;20455;-73
2022/09/29 00:57:33;;;;;;;4.00;2.40;;;7.60;99.90;;;;;;4995692;28;20419;-73
2022/09/29 01:00:10;;;;;;;2.43;2.23;;;7.60;99.90;;;;;;4995777;28;20443;-73
2022/09/29 01:02:43;;;;;;;6.47;2.60;;;7.60;99.90;;;;;;4995290;28;20412;-72
2022/09/29 01:05:13;;;;;;;3.43;2.70;;;7.50;99.90;;;;;;4995147;28;20459;-72
2022/09/29 01:07:39;;;;;;;2.33;2.13;;;7.40;99.90;;;;;;4994253;28;20428;-72
2022/09/29 01:10:06;;;;;;;7.20;2.50;;;7.40;99.90;;;;;;4995496;28;20428;-72
2022/09/29 01:12:32;;;;;;;3.87;2.30;;;7.40;99.90;;;;;;4995380;28;20424;-72
2022/09/29 01:14:58;;;;;;;2.50;2.30;;;7.30;99.90;;;;;;4995394;28;20431;-73
2022/09/29 01:17:24;;;;;;;4.27;2.53;;;7.30;99.90;;;;;;4995202;28;20208;-73
2022/09/29 01:20:19;;;;;;;7.27;2.60;;;7.30;99.90;;;;;;4995479;28;20495;-72
2022/09/29 01:23:19;;;;;;;4.30;3.70;;;7.20;99.90;;;;;;4995432;28;20770;-72
2022/09/29 01:25:51;;;;;;;4.10;3.57;;;7.10;99.90;;;;;;4994968;28;20555;-72
2022/09/29 01:28:28;;;;;;;5.23;3.23;;;7.10;99.90;;;;;;4995132;28;20400;-72
2022/09/29 01:31:32;;;;;;;5.40;2.87;;;7.10;99.90;;;;;;4995193;28;20470;-72
2022/09/29 01:34:10;;;;;;;4.10;2.83;;;7.10;99.90;;;;;;4992601;28;20786;-72
2022/09/29 01:36:41;;;;;;;3.10;2.60;;;7.10;99.90;;;;;;4991430;28;20523;-72
2022/09/29 01:39:13;;;;;;;3.43;3.13;;;7.10;99.90;;;;;;4994450;28;20439;-72
2022/09/29 01:42:17;;;;;;;4.43;3.20;;;7.00;99.90;;;;;;4994757;28;20981;-72
2022/09/29 01:44:49;;;;;;;3.80;3.50;;;7.00;99.90;;;;;;4993611;28;20447;-72
2022/09/29 01:47:34;;;;;;;3.30;3.00;;;7.00;99.90;;;;;;4994366;28;20424;-73
2022/09/29 01:50:07;;;;;;;4.50;2.67;;;7.00;99.90;;;;;;4994619;28;20434;-72
2022/09/29 01:52:44;;;;;;;3.60;2.67;;;7.00;99.90;;;;;;4994510;28;20435;-72
2022/09/29 01:55:15;;;;;;;3.60;3.03;;;7.00;99.90;;;;;;4992562;28;20419;-73
2022/09/29 01:57:56;;;;;;;7.00;3.70;;;7.00;99.90;;;;;;4994756;28;20769;-72
2022/09/29 02:00:22;;;;;;;4.30;3.30;;;7.00;99.90;;;;;;4994485;28;20412;-72
2022/09/29 02:03:07;;;;;;;6.27;3.70;;;6.90;99.90;;;;;;4994471;28;20400;-72
2022/09/29 02:05:44;;;;;;;3.43;3.13;;;6.90;99.90;;;;;;4994194;28;20543;-72
2022/09/29 02:08:14;;;;;;;3.73;3.43;;;6.90;99.90;;;;;;4993104;28;20415;-73
2022/09/29 02:10:52;;;;;;;5.30;3.43;;;6.90;99.90;;;;;;4994092;28;20463;-72
2022/09/29 02:13:20;;;;;;;5.90;4.60;;;6.80;99.90;;;;;;4994189;28;20408;-72
2022/09/29 02:15:49;;;;;;;5.73;3.77;;;6.80;99.90;;;;;;4993733;28;20432;-73
2022/09/29 02:18:20;;;;;;;3.70;3.17;;;6.90;99.90;;;;;;4993228;28;20994;-73
2022/09/29 02:20:47;;;;;;;3.80;3.33;;;6.90;99.90;;;;;;4994100;28;20424;-73
2022/09/29 02:23:13;;;;;;;3.10;2.80;;;6.90;99.90;;;;;;4994108;28;20467;-72
2022/09/29 02:25:39;;;;;;;5.53;4.30;;;6.90;99.90;;;;;;4993677;28;20487;-72
2022/09/29 02:28:06;;;;;;;5.70;3.30;;;6.90;99.90;;;;;;4994146;28;20627;-72
2022/09/29 02:30:32;;;;;;;3.47;2.73;;;6.90;99.90;;;;;;4993902;28;20769;-71
2022/09/29 02:32:58;;;;;;;5.13;3.83;;;6.80;99.90;;;;;;4992751;28;20423;-72
2022/09/29 02:35:32;;;;;;;5.00;4.27;;;6.90;99.90;;;;;;4993469;28;20408;-73
2022/09/29 02:37:58;;;;;;;4.43;3.77;;;6.80;99.90;;;;;;4994007;28;20262;-72
2022/09/29 02:40:52;;;;;;;5.37;3.60;;;6.80;99.90;;;;;;4994170;28;20400;-72
2022/09/29 02:43:46;;;;;;;6.13;3.27;;;6.80;99.90;;;;;;4992571;28;20180;-72
2022/09/29 02:46:38;;;;;;;3.47;2.70;;;6.80;99.90;;;;;;4993101;28;20502;-72
2022/09/29 02:49:12;;;;;;;6.37;4.07;;;6.80;99.90;;;;;;4993649;28;20479;-72
2022/09/29 02:51:46;;;;;;;7.13;3.93;;;6.80;99.90;;;;;;4993035;28;20904;-72
2022/09/29 02:54:54;;;;;;;3.70;3.40;;;6.80;99.90;;;;;;4992214;28;20439;-72
2022/09/29 02:57:19;;;;;;;4.00;3.37;;;6.70;99.90;;;;;;4993330;28;20434;-72
2022/09/29 02:59:54;;;;;;;4.00;3.10;;;6.80;99.90;;;;;;4993497;28;20412;-72
2022/09/29 03:02:25;;;;;;;4.30;3.37;;;6.80;99.90;;;;;;4993573;28;20189;-72
2022/09/29 03:04:52;;;;;;;5.00;3.87;;;6.80;99.90;;;;;;4992895;28;20478;-72
2022/09/29 03:07:18;;;;;;;4.07;3.33;;;6.80;99.90;;;;;;4993126;28;20428;-72
2022/09/29 03:09:43;;;;;;;3.23;2.60;;;6.80;99.90;;;;;;4993196;28;20474;-72
2022/09/29 03:12:09;;;;;;;3.87;3.27;;;6.70;99.90;;;;;;4992983;28;20169;-71
2022/09/29 03:14:34;;;;;;;3.83;3.37;;;6.60;99.90;;;;;;4992761;28;20651;-72
2022/09/29 03:17:00;;;;;;;22.43;10.23;;;6.50;99.90;;;;;;4992598;28;20185;-72
2022/09/29 03:19:25;;;;;;;12.90;4.60;;;6.50;99.90;;;;;;4992641;28;20181;-72
2022/09/29 03:21:51;;;;;;;3.27;2.97;;;6.50;99.90;;;;;;4992936;28;20169;-72
2022/09/29 03:24:16;;;;;;;4.27;2.67;;;6.50;99.90;;;;;;4992631;28;20177;-71
2022/09/29 03:26:42;;;;;;;3.20;2.90;;;6.50;99.90;;;;;;4991654;28;20602;-71
2022/09/29 03:29:07;;;;;;;4.83;3.30;;;6.50;99.90;;;;;;4992810;28;20256;-72
2022/09/29 03:31:33;;;;;;;5.23;2.87;;;6.40;99.90;;;;;;4992914;28;20172;-72
2022/09/29 03:33:58;;;;;;;3.47;3.17;;;6.30;99.90;;;;;;4992941;28;20565;-72
2022/09/29 03:36:24;;;;;;;4.23;3.10;;;6.30;99.90;;;;;;4992705;28;20188;-71
2022/09/29 03:38:50;;;;;;;4.10;3.57;;;6.30;99.90;;;;;;4992756;28;20181;-71
2022/09/29 03:41:15;;;;;;;3.20;2.60;;;6.40;99.90;;;;;;4992673;28;20231;-71
2022/09/29 03:43:41;;;;;;;3.20;2.90;;;6.30;99.90;;;;;;4992718;28;20177;-71
2022/09/29 03:46:06;;;;;;;3.10;2.80;;;6.20;99.90;;;;;;4992314;28;20674;-72
2022/09/29 03:48:33;;;;;;;3.50;2.93;;;6.20;99.90;;;;;;4992512;28;20173;-71
2022/09/29 03:50:59;;;;;;;4.90;3.50;;;6.10;99.90;;;;;;4992617;28;20288;-72
2022/09/29 03:53:25;;;;;;;4.00;2.83;;;6.10;99.90;;;;;;4992601;28;20905;-72
2022/09/29 03:55:51;;;;;;;5.80;3.40;;;6.00;99.90;;;;;;4992360;28;20510;-72
2022/09/29 03:58:17;;;;;;;5.90;4.03;;;6.00;99.90;;;;;;4992717;28;20177;-72
2022/09/29 04:00:43;;;;;;;4.87;3.13;;;5.90;99.90;;;;;;4992601;28;20230;-72
2022/09/29 04:03:09;;;;;;;4.80;3.63;;;5.90;99.90;;;;;;4994622;28;20746;-72
2022/09/29 04:05:37;;;;;;;3.93;3.07;;;5.90;99.90;;;;;;4996277;28;20444;-74
2022/09/29 04:08:06;;;;;;;4.87;3.30;;;5.90;99.90;;;;;;4996929;28;20165;-71
2022/09/29 04:10:36;;;;;;;3.93;3.13;;;5.90;99.90;;;;;;4995303;28;20422;-71
2022/09/29 04:13:02;;;;;;;3.30;3.00;;;5.90;99.90;;;;;;4996156;28;20443;-71
2022/09/29 04:15:27;;;;;;;7.43;3.70;;;5.90;99.90;;;;;;4995889;28;20412;-72
2022/09/29 04:17:53;;;;;;;4.63;3.33;;;5.90;99.90;;;;;;4996116;28;20461;-71
2022/09/29 04:20:18;;;;;;;5.10;3.10;;;5.80;99.90;;;;;;4995727;28;20248;-71
2022/09/29 04:22:43;;;;;;;10.67;4.90;;;5.80;99.90;;;;;;4996293;28;20180;-71
2022/09/29 04:25:09;;;;;;;6.33;3.70;;;5.70;99.90;;;;;;4995733;28;20279;-71
2022/09/29 04:27:35;;;;;;;4.07;3.10;;;5.70;99.90;;;;;;4995999;28;20192;-71
2022/09/29 04:30:00;;;;;;;4.10;2.77;;;5.60;99.90;;;;;;4996068;28;20189;-71
2022/09/29 04:32:26;;;;;;;4.13;3.57;;;5.50;99.90;;;;;;4995970;28;20169;-72
2022/09/29 04:34:51;;;;;;;3.90;3.10;;;5.50;99.90;;;;;;4994442;28;20177;-71
2022/09/29 04:37:17;;;;;;;3.30;2.97;;;5.50;99.90;;;;;;4994638;28;20196;-71
2022/09/29 04:39:42;;;;;;;3.30;3.00;;;5.40;99.90;;;;;;4995946;28;20180;-73
2022/09/29 04:42:08;;;;;;;3.80;3.10;;;5.40;99.90;;;;;;4995825;28;20169;-71
2022/09/29 04:44:34;;;;;;;4.87;3.60;;;5.50;99.90;;;;;;4995513;28;20230;-71
2022/09/29 04:46:59;;;;;;;4.37;3.83;;;5.50;99.90;;;;;;4995663;28;20200;-72
2022/09/29 04:49:25;;;;;;;3.70;3.40;;;5.50;99.90;;;;;;4995812;28;20184;-72
2022/09/29 04:51:50;;;;;;;4.10;3.20;;;5.40;99.90;;;;;;4994607;28;20169;-72
2022/09/29 04:54:16;;;;;;;4.53;3.37;;;5.30;99.90;;;;;;4995723;28;20161;-72
2022/09/29 04:56:41;;;;;;;4.80;3.13;;;5.30;99.90;;;;;;4994267;28;20196;-72
2022/09/29 04:59:09;;;;;;;4.60;3.60;;;5.40;99.90;;;;;;4995555;28;20169;-72
2022/09/29 05:01:34;;;;;;;6.20;4.57;;;5.40;99.90;;;;;;4995436;28;20173;-72
2022/09/29 05:04:00;;;;;;;6.80;3.90;;;5.30;99.90;;;;;;4995288;28;20404;-71
2022/09/29 05:06:26;;;;;;;9.70;4.50;;;5.30;99.90;;;;;;4994985;28;20211;-72
2022/09/29 05:08:51;;;;;;;10.00;3.40;;;5.20;99.90;;;;;;4995478;28;21092;-72
2022/09/29 05:11:17;;;;;;;8.10;3.83;;;5.20;99.90;;;;;;4995378;28;20161;-72
2022/09/29 05:13:43;;;;;;;4.20;3.50;;;5.20;99.90;;;;;;4993817;28;20593;-72
2022/09/29 05:16:08;;;;;;;7.53;4.47;;;5.10;99.90;;;;;;4994979;28;20603;-72
2022/09/29 05:18:34;;;;;;;9.90;4.17;;;5.30;99.90;;;;;;4995164;28;20169;-72
2022/09/29 05:21:04;;;;;;;4.37;3.37;;;5.30;99.90;;;;;;4995202;28;20165;-72
2022/09/29 05:23:30;;;;;;;6.00;3.80;;;5.40;99.90;;;;;;4995149;28;20224;-71
2022/09/29 05:26:00;;;;;;;5.50;3.80;;;5.40;99.90;;;;;;4994594;28;20455;-71
2022/09/29 05:28:26;;;;;;;6.30;4.53;;;5.40;99.90;;;;;;4995264;28;20161;-71
2022/09/29 05:30:51;;;;;;;5.43;4.10;;;5.40;99.90;;;;;;4994940;28;20399;-71
2022/09/29 05:33:17;;;;;;;8.33;5.30;;;5.40;99.90;;;;;;4994873;28;20171;-71
2022/09/29 05:35:42;;;;;;;5.27;3.80;;;5.40;99.90;;;;;;4993267;28;20189;-71
2022/09/29 05:38:08;;;;;;;6.33;3.90;;;5.40;99.90;;;;;;4994798;28;20639;-72
2022/09/29 05:40:36;;;;;;;6.07;4.60;;;5.40;99.90;;;;;;4995014;28;20173;-72
2022/09/29 05:43:02;;;;;;;5.87;4.13;;;5.30;99.90;;;;;;4994951;28;20219;-73
2022/09/29 05:45:27;;;;;;;6.10;3.70;;;5.30;99.90;;;;;;4994546;28;20474;-73
2022/09/29 05:47:53;;;;;;;8.40;3.50;;;5.30;99.90;;;;;;4994807;28;20906;-72
2022/09/29 05:50:20;;;;;;;8.87;4.30;;;5.30;99.90;;;;;;4994591;28;20185;-72
2022/09/29 05:52:49;;;;;;;9.97;3.93;;;5.30;99.90;;;;;;4994553;28;20296;-72
2022/09/29 05:55:15;;;;;;;6.50;3.77;;;5.30;99.90;;;;;;4994387;28;20412;-72
2022/09/29 05:57:41;;;;;;;8.43;4.67;;;5.30;99.90;;;;;;4994523;28;20805;-71
2022/09/29 06:00:07;;;;;;;8.10;4.77;;;5.40;99.90;;;;;;4994347;28;20412;-71
2022/09/29 06:02:33;;;;;;;10.33;4.20;;;5.50;99.90;;;;;;4994253;28;20192;-71
2022/09/29 06:04:59;;;;;;;7.20;4.07;;;5.60;99.90;;;;;;4993915;28;20451;-71
2022/09/29 06:07:25;;;;;;;6.27;4.97;;;5.60;99.90;;;;;;4993924;28;20231;-71
2022/09/29 06:09:50;;;;;;;9.27;5.40;;;5.70;99.90;;;;;;4994254;28;20401;-71
2022/09/29 06:12:16;;;;;;;5.40;4.20;;;5.80;99.90;;;;;;4992879;28;20646;-71
2022/09/29 06:14:41;;;;;;;8.00;4.57;;;5.80;99.90;;;;;;4993803;28;20157;-71
2022/09/29 06:17:07;;;;;;;10.13;4.73;;;5.90;99.90;;;;;;4994054;28;20424;-71
2022/09/29 06:19:32;;;;;;;5.77;4.10;;;6.00;99.90;;;;;;4994002;28;20169;-71
2022/09/29 06:21:58;;;;;;;8.33;4.87;;;6.00;99.90;;;;;;4993917;28;20169;-71
2022/09/29 06:24:23;;;;;;;7.20;4.70;;;6.10;99.90;;;;;;4993342;28;20192;-72
2022/09/29 06:26:49;;;;;;;4.90;3.67;;;6.20;99.90;;;;;;4992981;28;20292;-72
2022/09/29 06:29:14;;;;;;;5.50;4.40;;;6.30;99.90;;;;;;4993726;28;20184;-71
2022/09/29 06:31:40;;;;;;;6.43;4.10;;;6.30;99.90;;;;;;4992493;28;20170;-72
2022/09/29 06:34:05;;;;;;;6.93;4.47;;;6.40;99.90;;;;;;4993656;28;20161;-71
2022/09/29 06:39:21;;;;;;;14.93;4.80;;;6.60;99.90;;;;;;4993923;28;20175;-71
2022/09/29 06:41:53;;;;;;;6.90;4.33;;;6.80;99.90;;;;;;4993780;28;20828;-70
2022/09/29 06:44:20;;;;;;;7.00;4.90;;;6.80;99.90;;;;;;4993413;28;20169;-73
2022/09/29 06:46:47;;;;;;;7.67;4.27;;;6.90;99.90;;;;;;4993398;28;20964;-73
2022/09/29 06:49:14;;;;;;;6.80;4.60;;;7.00;99.90;;;;;;4993265;28;20419;-73
2022/09/29 06:51:41;;;;;;;7.00;5.10;;;7.10;99.90;;;;;;4992104;28;20932;-73
2022/09/29 06:54:07;;;;;;;7.27;5.27;;;7.20;99.90;;;;;;4993542;28;20560;-74
2022/09/29 06:56:32;;;;;;;7.40;5.30;;;7.30;99.90;;;;;;4993307;28;20514;-73
2022/09/29 06:58:57;;;;;;;7.70;5.90;;;7.40;99.90;;;;;;4993545;28;20169;-75
2022/09/29 07:01:23;;;;;;;8.10;4.60;;;7.50;99.90;;;;;;4993360;28;20196;-73
2022/09/29 07:03:48;;;;;;;8.20;5.40;;;7.70;99.90;;;;;;4993128;28;20328;-73
2022/09/29 07:06:14;;;;;;;6.80;4.90;;;7.80;99.90;;;;;;4992820;28;20208;-73
2022/09/29 07:08:40;;;;;;;9.30;5.60;;;7.90;99.90;;;;;;4993116;28;20165;-72
2022/09/29 07:11:07;;;;;;;6.60;5.10;;;8.00;99.90;;;;;;4993203;28;20173;-73
2022/09/29 07:13:33;;;;;;;5.57;4.70;;;8.10;99.90;;;;;;4993159;28;20169;-76
2022/09/29 07:16:07;;;;;;;6.60;5.47;;;8.20;99.90;;;;;;4992697;28;20428;-73
2022/09/29 07:18:36;;;;;;;8.17;5.43;;;8.30;99.90;;;;;;4993113;28;20439;-73
2022/09/29 07:21:03;;;;;;;5.80;5.17;;;8.40;99.90;;;;;;4993010;28;20831;-73
2022/09/29 07:23:29;;;;;;;7.47;6.33;;;8.40;99.90;;;;;;4991621;28;20423;-73
2022/09/29 07:25:54;;;;;;;8.53;5.77;;;8.60;99.90;;;;;;4992582;28;20899;-73
2022/09/29 07:28:20;;;;;;;10.20;6.13;;;8.60;99.90;;;;;;4992770;28;20243;-73
2022/09/29 07:30:45;;;;;;;11.40;6.83;;;8.70;99.90;;;;;;4992795;28;20674;-73
2022/09/29 07:33:11;;;;;;;10.63;5.70;;;8.80;99.90;;;;;;4992872;28;20242;-73
2022/09/29 07:35:36;;;;;;;9.60;6.23;;;9.00;99.90;;;;;;4992625;28;20204;-73
2022/09/29 07:38:02;;;;;;;12.73;7.50;;;9.10;99.90;;;;;;4992646;28;20564;-73
2022/09/29 07:40:28;;;;;;;16.60;6.57;;;9.20;99.90;;;;;;4992838;28;20169;-73
2022/09/29 07:42:53;;;;;;;11.03;6.77;;;9.40;99.90;;;;;;4992697;28;20689;-72
2022/09/29 07:45:19;;;;;;;10.70;6.73;;;9.60;99.90;;;;;;4992327;28;20196;-73
2022/09/29 07:47:45;;;;;;;11.50;6.80;;;9.70;99.90;;;;;;4992658;28;20235;-73
2022/09/29 07:50:11;;;;;;;11.13;7.90;;;9.90;99.90;;;;;;4992504;28;20455;-73
2022/09/29 07:52:37;;;;;;;7.50;5.93;;;10.10;99.90;;;;;;4992474;28;20165;-73
2022/09/29 07:55:03;;;;;;;13.07;7.27;;;10.30;99.90;;;;;;4991723;28;20774;-73
2022/09/29 07:57:29;;;;;;;8.83;6.00;;;10.50;99.90;;;;;;4991269;28;20280;-73
2022/09/29 07:59:56;;;;;;;10.60;7.10;;;10.70;99.90;;;;;;4991439;28;20839;-73
2022/09/29 08:02:22;;;;;;;10.90;6.53;;;11.00;99.90;;;;;;4992647;28;20580;-73
2022/09/29 08:04:47;;;;;;;9.47;6.07;;;11.30;99.90;;;;;;4992163;28;20404;-73
2022/09/29 08:07:13;;;;;;;8.13;5.37;;;11.80;99.90;;;;;;4992205;28;20216;-73
2022/09/29 08:09:39;;;;;;;5.47;4.23;;;12.30;99.90;;;;;;4992480;28;20432;-73
2022/09/29 08:12:04;;;;;;;5.20;4.13;;;12.90;99.90;;;;;;4992406;28;20176;-74
2022/09/29 08:14:30;;;;;;;7.30;3.67;;;13.70;99.90;;;;;;4992067;28;20622;-74
2022/09/29 08:16:55;;;;;;;4.60;4.20;;;14.70;99.90;;;;;;4992332;28;20189;-72
2022/09/29 08:19:21;;;;;;;4.20;3.50;;;16.10;99.90;;;;;;4992484;28;20252;-72
2022/09/29 08:21:48;;;;;;;6.60;4.57;;;17.60;99.90;;;;;;4992450;28;20169;-72
2022/09/29 08:24:14;;;;;;;9.37;3.63;;;19.10;99.90;;;;;;4992335;28;20670;-72
2022/09/29 08:26:40;;;;;;;3.70;3.27;;;20.40;99.90;;;;;;4992625;28;20513;-72
2022/09/29 08:29:06;;;;;;;6.10;5.00;;;21.70;99.90;;;;;;4992746;28;20443;-72
2022/09/29 08:31:32;;;;;;;4.43;3.43;;;23.10;96.50;;;;;;4992836;28;20192;-72
2022/09/29 08:33:58;;;;;;;4.00;3.60;;;24.10;82.40;;;;;;4992554;28;20439;-72
2022/09/29 08:36:24;;;;;;;4.30;3.10;;;25.10;68.90;;;;;;4991420;28;20467;-73
2022/09/29 08:38:51;;;;;;;4.00;3.60;;;26.00;63.40;;;;;;4993260;28;20589;-72
2022/09/29 08:41:26;;;;;;;5.37;4.27;;;26.80;57.80;;;;;;4992876;28;20423;-72
2022/09/29 08:43:57;;;;;;;6.80;5.40;;;27.80;55.40;;;;;;4991364;28;20411;-72
2022/09/29 08:46:38;;;;;;;5.07;4.20;;;28.60;52.10;;;;;;4991070;28;20470;-72
2022/09/29 08:49:39;;;;;;;5.63;4.93;;;29.30;50.20;;;;;;4994418;28;20491;-72
2022/09/29 08:52:27;;;;;;;5.77;5.17;;;29.50;49.00;;;;;;4995020;28;20486;-72
2022/09/29 08:54:59;;;;;;;7.00;5.07;;;29.80;47.00;;;;;;4996074;28;21095;-72
2022/09/29 08:57:25;;;;;;;6.03;5.43;;;30.30;46.00;;;;;;4996412;28;20427;-72
2022/09/29 08:59:57;;;;;;;7.17;5.53;;;30.40;44.50;;;;;;4996098;28;20745;-72
2022/09/29 09:03:03;;;;;;;8.13;6.07;;;30.30;43.90;;;;;;4995879;28;20165;-72
2022/09/29 09:05:53;;;;;;;8.80;6.33;;;31.10;43.90;;;;;;4995007;28;20992;-72
2022/09/29 09:08:38;;;;;;;7.63;5.50;;;31.10;43.30;;;;;;4994645;28;20534;-72
2022/09/29 09:11:26;;;;;;;8.13;6.77;;;31.60;42.70;;;;;;4994437;28;20439;-70
2022/09/29 09:14:22;;;;;;;8.70;6.57;;;32.30;41.70;;;;;;4994154;28;20400;-69
2022/09/29 09:17:07;;;;;;;12.17;6.10;;;32.60;41.40;;;;;;4995180;28;20763;-71
2022/09/29 09:20:01;;;;;;;7.20;6.40;;;32.70;41.20;;;;;;4995513;28;20404;-74
2022/09/29 09:22:54;;;;;;;8.03;6.60;;;33.50;42.70;;;;;;4994677;28;20450;-73
2022/09/29 09:25:31;;;;;;;6.80;6.17;;;33.30;40.60;;;;;;4994122;28;20452;-73
2022/09/29 09:28:21;;;;;;;8.87;6.07;;;34.10;38.60;;;;;;4995004;28;20906;-73
2022/09/29 09:30:59;;;;;;;11.53;6.40;;;34.20;37.30;;;;;;4995121;28;20953;-73
2022/09/29 09:33:35;;;;;;;8.13;6.83;;;34.00;37.70;;;;;;4994440;28;20984;-75
2022/09/29 09:36:12;;;;;;;7.40;6.43;;;34.10;37.50;;;;;;4993303;28;20440;-73
2022/09/29 09:38:56;;;;;;;10.63;7.00;;;34.20;37.20;;;;;;4994403;28;20496;-74
2022/09/29 09:41:24;;;;;;;7.73;6.00;;;34.60;37.60;;;;;;4994733;28;20797;-73
2022/09/29 09:44:10;;;;;;;7.03;6.33;;;34.90;37.40;;;;;;4993526;28;20398;-72
2022/09/29 09:46:44;;;;;;;9.53;6.03;;;35.90;37.20;;;;;;4993431;28;20471;-73
2022/09/29 09:49:30;;;;;;;7.47;6.27;;;36.00;36.30;;;;;;4994425;28;20405;-72
2022/09/29 09:52:25;;;;;;;8.27;5.47;;;36.70;36.00;;;;;;4994830;28;20408;-73
2022/09/29 09:54:55;;;;;;;12.23;7.20;;;37.10;34.60;;;;;;4990656;28;20779;-73
2022/09/29 09:57:59;;;;;;;8.67;6.30;;;36.30;33.60;;;;;;4994817;28;20499;-72
2022/09/29 10:00:54;;;;;;;9.87;6.70;;;36.50;35.00;;;;;;4994532;28;20928;-72
2022/09/29 10:03:19;;;;;;;8.03;7.33;;;36.80;34.80;;;;;;4993991;28;20503;-73
2022/09/29 10:05:47;;;;;;;6.77;5.70;;;36.70;34.30;;;;;;4993166;28;20519;-73
2022/09/29 10:08:37;;;;;;;9.03;6.20;;;36.70;34.70;;;;;;4993657;28;20705;-73
2022/09/29 10:11:04;;;;;;;9.00;8.07;;;37.10;33.90;;;;;;4993961;28;20517;-73
2022/09/29 10:13:30;;;;;;;7.00;6.30;;;37.40;32.80;;;;;;4993946;28;20408;-73
2022/09/29 10:16:05;;;;;;;6.97;6.37;;;37.50;33.50;;;;;;4993392;28;20819;-72
2022/09/29 10:18:40;;;;;;;7.80;6.67;;;37.60;33.20;;;;;;4992599;28;20438;-73
2022/09/29 10:21:22;;;;;;;8.17;7.23;;;37.20;32.80;;;;;;4993808;28;20442;-72
2022/09/29 10:23:56;;;;;;;7.60;6.97;;;37.10;32.50;;;;;;4993646;28;20818;-72
2022/09/29 10:26:43;;;;;;;8.27;6.60;;;36.70;33.10;;;;;;4992126;28;20487;-73
2022/09/29 10:29:20;;;;;;;6.67;5.97;;;37.00;33.40;;;;;;4993702;28;20803;-72
2022/09/29 10:31:59;;;;;;;11.23;6.43;;;37.70;33.00;;;;;;4993722;28;20498;-71
2022/09/29 10:34:25;;;;;;;7.10;6.30;;;37.90;32.10;;;;;;4993420;28;20455;-71
2022/09/29 10:37:00;;;;;;;6.13;5.60;;;38.50;32.10;;;;;;4993396;28;20467;-71
2022/09/29 10:39:47;;;;;;;8.30;7.30;;;39.30;31.90;;;;;;4994454;28;20393;-71
2022/09/29 10:42:20;;;;;;;8.17;7.00;;;39.90;30.30;;;;;;4993847;28;20433;-72
2022/09/29 10:44:59;;;;;;;8.27;6.40;;;40.20;30.20;;;;;;4993565;28;20400;-71
2022/09/29 10:47:25;;;;;;;9.33;6.43;;;40.60;30.00;;;;;;4993960;28;20511;-72
2022/09/29 10:50:20;;;;;;;8.87;6.63;;;40.60;30.00;;;;;;4993953;28;20458;-72
2022/09/29 10:52:59;;;;;;;7.80;6.00;;;40.80;29.70;;;;;;4993660;28;20173;-72
2022/09/29 10:55:27;;;;;;;7.70;6.60;;;40.80;28.40;;;;;;4992954;28;20422;-73
2022/09/29 10:57:59;;;;;;;7.33;6.57;;;40.60;28.90;;;;;;4993522;28;20379;-72
2022/09/29 11:00:37;;;;;;;8.23;7.13;;;41.40;29.30;;;;;;4992314;28;20417;-73
2022/09/29 11:03:25;;;;;;;6.90;6.23;;;41.90;28.50;;;;;;4993303;28;20395;-71
2022/09/29 11:05:53;;;;;;;7.03;6.17;;;41.60;28.40;;;;;;4993148;28;20859;-73
2022/09/29 11:08:24;;;;;;;7.27;6.57;;;41.20;28.10;;;;;;4993018;28;20483;-72
2022/09/29 11:11:16;;;;;;;6.37;5.87;;;39.70;28.10;;;;;;4992743;28;20389;-72
2022/09/29 11:13:44;;;;;;;5.40;3.83;;;39.00;29.40;;;;;;4993338;28;20394;-72
2022/09/29 11:16:18;;;;;;;4.40;4.00;;;39.30;29.50;;;;;;4992778;28;20509;-72
2022/09/29 11:18:48;;;;;;;6.20;5.20;;;39.20;28.20;;;;;;4993138;28;20394;-70
2022/09/29 11:21:52;;;;;;;5.47;4.97;;;39.30;28.50;;;;;;4993011;28;20379;-72
2022/09/29 11:24:51;;;;;;;4.87;4.37;;;37.80;27.80;;;;;;4992858;28;20823;-72
2022/09/29 11:27:30;;;;;;;6.33;4.57;;;35.70;28.60;;;;;;4993147;28;20415;-72
2022/09/29 11:30:08;;;;;;;5.40;4.17;;;33.30;29.50;;;;;;4992702;28;20404;-72
2022/09/29 11:32:48;;;;;;;5.10;4.00;;;30.90;30.90;;;;;;4992908;28;20407;-73
2022/09/29 11:35:23;;;;;;;4.83;4.30;;;28.90;33.40;;;;;;4992453;28;20463;-72
2022/09/29 11:38:18;;;;;;;7.53;6.20;;;27.60;35.20;;;;;;4992490;28;20411;-74
2022/09/29 11:41:06;;;;;;;5.00;4.47;;;26.30;37.20;;;;;;4991202;28;20430;-72
2022/09/29 11:44:01;;;;;;;5.93;5.30;;;25.20;39.10;;;;;;4992511;28;20408;-72
2022/09/29 11:47:16;;;;;;;6.33;4.50;;;24.30;40.60;;;;;;4992066;28;20428;-72
2022/09/29 11:50:01;;;;;;;4.70;3.67;;;23.60;42.10;;;;;;4991155;28;20443;-73
2022/09/29 11:52:33;;;;;;;4.77;3.20;;;23.10;42.80;;;;;;4992449;28;20507;-71
2022/09/29 11:55:34;;;;;;;6.40;3.93;;;22.60;43.70;;;;;;4990850;28;20455;-71
2022/09/29 11:58:20;;;;;;;4.77;3.67;;;22.10;43.90;;;;;;4990201;28;20511;-71
2022/09/29 12:00:57;;;;;;;3.70;3.30;;;21.50;45.00;;;;;;4991143;28;20408;-70
2022/09/29 12:03:31;;;;;;;5.97;4.00;;;21.10;46.10;;;;;;4992166;28;20414;-71
2022/09/29 12:06:06;;;;;;;3.53;3.10;;;20.90;47.20;;;;;;4991621;28;20478;-71
2022/09/29 12:08:43;;;;;;;4.00;3.33;;;20.70;47.30;;;;;;4992346;28;20889;-70
2022/09/29 12:11:24;;;;;;;3.43;2.90;;;20.40;48.00;;;;;;4991881;28;20399;-71
2022/09/29 12:13:55;;;;;;;6.17;3.50;;;20.20;49.10;;;;;;4992253;28;20777;-70
2022/09/29 12:16:26;;;;;;;4.50;3.93;;;20.10;49.60;;;;;;4991828;28;20470;-70
2022/09/29 12:19:07;;;;;;;4.80;3.50;;;20.00;50.00;;;;;;4992182;28;20476;-70
2022/09/29 12:21:44;;;;;;;12.23;4.23;;;19.90;50.60;;;;;;4992035;28;20411;-71
2022/09/29 12:24:16;;;;;;;4.00;3.30;;;19.80;50.90;;;;;;4994187;28;20462;-72
2022/09/29 12:26:46;;;;;;;5.20;3.70;;;19.90;51.10;;;;;;4995025;28;21075;-72
2022/09/29 12:29:30;;;;;;;4.77;3.43;;;19.80;51.80;;;;;;4995937;28;20454;-71
2022/09/29 12:31:57;;;;;;;7.17;3.57;;;19.80;51.90;;;;;;4995921;28;20461;-71
2022/09/29 12:34:36;;;;;;;6.17;4.00;;;19.80;52.10;;;;;;4994520;28;20514;-71
2022/09/29 12:37:11;;;;;;;4.17;3.80;;;19.70;52.40;;;;;;4995541;28;20551;-72
2022/09/29 12:39:46;;;;;;;4.50;3.53;;;19.70;53.20;;;;;;4995775;28;20400;-71
2022/09/29 12:42:17;;;;;;;4.17;3.40;;;19.80;52.90;;;;;;4995676;28;20392;-71
2022/09/29 12:44:52;;;;;;;4.80;3.70;;;19.90;52.10;;;;;;4994401;28;20971;-71
2022/09/29 12:47:25;;;;;;;3.13;2.67;;;19.90;51.80;;;;;;4994318;28;20435;-71
2022/09/29 12:50:08;;;;;;;5.03;2.73;;;19.90;51.90;;;;;;4994307;28;20784;-71
2022/09/29 12:52:50;;;;;;;2.50;2.30;;;20.00;52.20;;;;;;4995656;28;20444;-72
2022/09/29 12:55:27;;;;;;;2.97;2.50;;;21.80;52.60;;;;;;4995420;28;20440;-72
2022/09/29 12:57:57;;;;;;;4.03;2.67;;;24.30;51.70;;;;;;4994088;28;20877;-71
2022/09/29 13:00:23;;;;;;;7.33;2.80;;;26.60;49.20;;;;;;4995346;28;20765;-71
2022/09/29 13:03:15;;;;;;;5.63;2.90;;;27.30;45.50;;;;;;4995281;28;20407;-71
2022/09/29 13:06:00;;;;;;;3.33;2.40;;;27.20;42.10;;;;;;4993786;28;20432;-72
2022/09/29 13:08:28;;;;;;;3.63;2.63;;;27.30;41.50;;;;;;4995282;28;20905;-73
2022/09/29 13:11:02;;;;;;;3.60;3.03;;;27.70;41.20;;;;;;4993859;28;20447;-71
2022/09/29 13:13:52;;;;;;;5.33;3.60;;;27.60;40.80;;;;;;4994866;28;20395;-71
2022/09/29 13:16:58;;;;;;;5.10;3.10;;;27.40;41.00;;;;;;4994631;28;20459;-73
2022/09/29 13:19:41;;;;;;;3.10;2.33;;;27.20;41.10;;;;;;4993798;28;20419;-72
2022/09/29 13:22:25;;;;;;;3.43;2.10;;;26.80;40.80;;;;;;4994962;28;20428;-72